DAL720 KLAS-KATL
Flight info
| Callsign | DAL720 |
|---|---|
| Flight time | N/A |
| Altitude | 39000 |
| Route | NIITZ4 HOCEE TBC J76 FTI CRUSR IRW FSM MEMFS HUTCC KNSAW RUSSA GLAVN2 |
| Aircraft | A333/H-SDE3GHIJ2J3J5M1RVWXY/LB2D1 |
Departure
| Time | 2026-05-08 05:25 |
|---|---|
| Airport | Harry Reid International Airport (KLAS) |
Arrival
| Time | N/A |
|---|---|
| Airport | Hartsfield Jackson Atlanta International Airport (KATL) |
| Time | Latitude | Longitude | Altitude | Speed | Heading |
|---|---|---|---|---|---|
| 2026-05-08 05:03 | 36.08065 | -115.14069 | 2097 ft | 0 kts | 125° |
| 2026-05-08 05:07 | 36.08070 | -115.14077 | 2097 ft | 4 kts | 125° |
| 2026-05-08 05:07 | 36.08085 | -115.14104 | 2098 ft | 4 kts | 125° |
| 2026-05-08 05:08 | 36.08101 | -115.14132 | 2101 ft | 3 kts | 125° |
| 2026-05-08 05:08 | 36.08113 | -115.14152 | 2098 ft | 4 kts | 147° |
| 2026-05-08 05:08 | 36.08133 | -115.14159 | 2098 ft | 3 kts | 180° |
| 2026-05-08 05:08 | 36.08157 | -115.14159 | 2098 ft | 1 kts | 180° |
| 2026-05-08 05:12 | 36.08147 | -115.14159 | 2098 ft | 5 kts | 180° |
| 2026-05-08 05:12 | 36.08107 | -115.14159 | 2098 ft | 6 kts | 180° |
| 2026-05-08 05:12 | 36.08060 | -115.14159 | 2098 ft | 7 kts | 180° |
| 2026-05-08 05:13 | 36.08006 | -115.14159 | 2098 ft | 8 kts | 180° |
| 2026-05-08 05:13 | 36.07953 | -115.14159 | 2098 ft | 8 kts | 180° |
| 2026-05-08 05:13 | 36.07913 | -115.14159 | 2098 ft | 0 kts | 180° |
| 2026-05-08 05:17 | 36.07903 | -115.14159 | 2098 ft | 6 kts | 180° |
| 2026-05-08 05:17 | 36.07849 | -115.14146 | 2098 ft | 8 kts | 145° |
| 2026-05-08 05:18 | 36.07829 | -115.14074 | 2097 ft | 10 kts | 97° |
| 2026-05-08 05:18 | 36.07827 | -115.13986 | 2097 ft | 11 kts | 91° |
| 2026-05-08 05:18 | 36.07826 | -115.13889 | 2097 ft | 12 kts | 90° |
| 2026-05-08 05:18 | 36.07826 | -115.13782 | 2096 ft | 13 kts | 90° |
| 2026-05-08 05:19 | 36.07827 | -115.13666 | 2096 ft | 14 kts | 89° |
| 2026-05-08 05:19 | 36.07828 | -115.13540 | 2095 ft | 15 kts | 89° |
| 2026-05-08 05:19 | 36.07827 | -115.13403 | 2094 ft | 17 kts | 90° |
| 2026-05-08 05:19 | 36.07827 | -115.13250 | 2091 ft | 19 kts | 90° |
| 2026-05-08 05:20 | 36.07826 | -115.13072 | 2084 ft | 23 kts | 90° |
| 2026-05-08 05:20 | 36.07827 | -115.12859 | 2070 ft | 27 kts | 90° |
| 2026-05-08 05:20 | 36.07827 | -115.12721 | 2070 ft | 14 kts | 89° |
| 2026-05-08 05:20 | 36.07828 | -115.12582 | 2065 ft | 18 kts | 90° |
| 2026-05-08 05:21 | 36.07828 | -115.12411 | 2061 ft | 21 kts | 90° |
| 2026-05-08 05:21 | 36.07825 | -115.12280 | 2057 ft | 10 kts | 108° |
| 2026-05-08 05:21 | 36.07785 | -115.12196 | 2056 ft | 12 kts | 126° |
| 2026-05-08 05:21 | 36.07722 | -115.12128 | 2055 ft | 5 kts | 148° |
| 2026-05-08 05:22 | 36.07719 | -115.12126 | 2055 ft | 0 kts | 149° |
| 2026-05-08 05:22 | 36.07715 | -115.12125 | 2054 ft | 1 kts | 156° |
| 2026-05-08 05:22 | 36.07714 | -115.12124 | 2054 ft | 0 kts | 156° |
| 2026-05-08 05:23 | 36.07702 | -115.12125 | 2053 ft | 3 kts | 179° |
| 2026-05-08 05:23 | 36.07675 | -115.12125 | 2057 ft | 4 kts | 187° |
| 2026-05-08 05:23 | 36.07656 | -115.12137 | 2056 ft | 2 kts | 215° |
| 2026-05-08 05:24 | 36.07647 | -115.12157 | 2052 ft | 2 kts | 249° |
| 2026-05-08 05:24 | 36.07643 | -115.12182 | 2053 ft | 3 kts | 262° |
| 2026-05-08 05:24 | 36.07642 | -115.12226 | 2054 ft | 20 kts | 269° |
| 2026-05-08 05:24 | 36.07642 | -115.12646 | 2069 ft | 76 kts | 269° |
| 2026-05-08 05:25 | 36.07643 | -115.13501 | 2094 ft | 122 kts | 270° |
| 2026-05-08 05:25 | 36.07641 | -115.14716 | 2221 ft | 150 kts | 268° |
| 2026-05-08 05:25 | 36.07626 | -115.15888 | 2988 ft | 130 kts | 266° |
| 2026-05-08 05:25 | 36.07609 | -115.17035 | 3371 ft | 137 kts | 267° |
| 2026-05-08 05:26 | 36.07576 | -115.18263 | 3731 ft | 149 kts | 266° |
| 2026-05-08 05:26 | 36.07517 | -115.19602 | 4035 ft | 165 kts | 269° |
| 2026-05-08 05:26 | 36.07473 | -115.21106 | 4286 ft | 185 kts | 265° |
| 2026-05-08 05:26 | 36.07301 | -115.22779 | 4535 ft | 208 kts | 262° |
| 2026-05-08 05:27 | 36.06940 | -115.24615 | 4791 ft | 232 kts | 247° |
| 2026-05-08 05:27 | 36.05911 | -115.26226 | 5243 ft | 252 kts | 217° |
| 2026-05-08 05:27 | 36.04284 | -115.27228 | 5719 ft | 270 kts | 203° |
| 2026-05-08 05:27 | 36.02501 | -115.28024 | 6387 ft | 276 kts | 201° |
| 2026-05-08 05:28 | 36.00608 | -115.28594 | 7112 ft | 284 kts | 186° |
| 2026-05-08 05:28 | 35.98631 | -115.28286 | 7793 ft | 293 kts | 159° |
| 2026-05-08 05:28 | 35.96890 | -115.26951 | 8552 ft | 298 kts | 140° |
| 2026-05-08 05:28 | 35.95324 | -115.25256 | 9397 ft | 301 kts | 137° |
| 2026-05-08 05:29 | 35.93767 | -115.23498 | 10181 ft | 307 kts | 136° |
| 2026-05-08 05:29 | 35.92161 | -115.21660 | 10596 ft | 325 kts | 133° |
| 2026-05-08 05:29 | 35.90723 | -115.19417 | 10962 ft | 342 kts | 121° |
| 2026-05-08 05:29 | 35.89460 | -115.16879 | 11578 ft | 350 kts | 118° |
| 2026-05-08 05:30 | 35.88221 | -115.14287 | 12364 ft | 352 kts | 118° |
| 2026-05-08 05:30 | 35.87149 | -115.11619 | 13139 ft | 353 kts | 107° |
| 2026-05-08 05:30 | 35.86721 | -115.08656 | 13871 ft | 352 kts | 89° |
| 2026-05-08 05:30 | 35.86805 | -115.05630 | 14526 ft | 355 kts | 84° |
| 2026-05-08 05:31 | 35.86991 | -115.02583 | 15157 ft | 359 kts | 83° |
| 2026-05-08 05:31 | 35.87184 | -114.99492 | 15757 ft | 363 kts | 83° |
| 2026-05-08 05:31 | 35.87372 | -114.96372 | 16403 ft | 367 kts | 83° |
| 2026-05-08 05:31 | 35.87554 | -114.93214 | 17050 ft | 371 kts | 83° |
| 2026-05-08 05:32 | 35.87733 | -114.90027 | 17669 ft | 375 kts | 83° |
| 2026-05-08 05:32 | 35.87910 | -114.86805 | 18270 ft | 379 kts | 84° |
| 2026-05-08 05:32 | 35.88087 | -114.83549 | 18792 ft | 382 kts | 84° |
| 2026-05-08 05:32 | 35.88263 | -114.80266 | 19347 ft | 385 kts | 84° |
| 2026-05-08 05:33 | 35.88440 | -114.76958 | 19883 ft | 388 kts | 83° |
| 2026-05-08 05:33 | 35.88617 | -114.73626 | 20411 ft | 391 kts | 83° |
| 2026-05-08 05:33 | 35.88794 | -114.70270 | 20934 ft | 394 kts | 83° |
| 2026-05-08 05:33 | 35.88972 | -114.66890 | 21452 ft | 397 kts | 84° |
| 2026-05-08 05:34 | 35.89150 | -114.63483 | 21947 ft | 400 kts | 83° |
| 2026-05-08 05:34 | 35.89328 | -114.60048 | 22442 ft | 402 kts | 83° |
| 2026-05-08 05:34 | 35.89507 | -114.56595 | 22923 ft | 405 kts | 83° |
| 2026-05-08 05:34 | 35.89675 | -114.53112 | 23394 ft | 409 kts | 85° |
| 2026-05-08 05:35 | 35.89715 | -114.49591 | 23786 ft | 412 kts | 87° |
| 2026-05-08 05:35 | 35.89699 | -114.46039 | 24179 ft | 415 kts | 88° |
| 2026-05-08 05:35 | 35.89674 | -114.42469 | 24560 ft | 418 kts | 88° |
| 2026-05-08 05:35 | 35.89650 | -114.38877 | 24979 ft | 420 kts | 87° |
| 2026-05-08 05:36 | 35.89626 | -114.35266 | 25383 ft | 423 kts | 87° |
| 2026-05-08 05:36 | 35.89603 | -114.31631 | 25767 ft | 425 kts | 87° |
| 2026-05-08 05:36 | 35.89580 | -114.27973 | 26152 ft | 428 kts | 87° |
| 2026-05-08 05:36 | 35.89556 | -114.24296 | 26548 ft | 430 kts | 87° |
| 2026-05-08 05:37 | 35.89530 | -114.20600 | 26930 ft | 432 kts | 87° |
| 2026-05-08 05:37 | 35.89504 | -114.16884 | 27298 ft | 435 kts | 87° |
| 2026-05-08 05:37 | 35.89476 | -114.13148 | 27686 ft | 437 kts | 87° |
| 2026-05-08 05:37 | 35.89447 | -114.09392 | 28057 ft | 439 kts | 87° |
| 2026-05-08 05:38 | 35.89417 | -114.05617 | 28434 ft | 442 kts | 87° |
| 2026-05-08 05:38 | 35.89386 | -114.01819 | 28773 ft | 444 kts | 87° |
| 2026-05-08 05:38 | 35.89353 | -113.97997 | 29133 ft | 447 kts | 87° |
| 2026-05-08 05:38 | 35.89319 | -113.94208 | 29455 ft | 450 kts | 88° |
| 2026-05-08 05:39 | 35.89283 | -113.90340 | 29781 ft | 452 kts | 88° |
| 2026-05-08 05:39 | 35.89206 | -113.82577 | 29874 ft | 453 kts | 88° |